Time;durP1;ratioP1;P1;durP2;ratioP2;P2;SDS_P1;SDS_P2;PMS_P1;PMS_P2;Temp;Humidity;BMP_temperature;BMP_pressure;BME280_temperature;BME280_humidity;BME280_pressure;Samples;Min_cycle;Max_cycle;Signal;HPM_P1;HPM_P2
2022/03/21 00:00:30;;;;;;;8.88;7.95;;;18.60;40.90;;;;;;6156499;23;20198;-70
2022/03/21 00:02:57;;;;;;;10.20;8.80;;;18.60;40.70;;;;;;6161299;23;20627;-70
2022/03/21 00:05:25;;;;;;;9.80;8.80;;;18.60;40.70;;;;;;6186268;23;20512;-70
2022/03/21 00:07:53;;;;;;;9.20;8.30;;;18.60;40.50;;;;;;6161445;23;20223;-70
2022/03/21 00:10:20;;;;;;;9.48;8.50;;;18.50;40.70;;;;;;6185980;23;20284;-70
2022/03/21 00:12:49;;;;;;;10.10;8.48;;;18.50;40.70;;;;;;6188298;23;20191;-70
2022/03/21 00:15:17;;;;;;;9.23;8.25;;;18.50;40.90;;;;;;6186469;23;20168;-70
2022/03/21 00:17:44;;;;;;;9.00;8.10;;;18.50;40.90;;;;;;6187802;23;20184;-70
2022/03/21 00:20:12;;;;;;;9.20;8.18;;;18.50;40.50;;;;;;6188443;23;20227;-70
2022/03/21 00:22:39;;;;;;;9.68;8.60;;;18.40;40.70;;;;;;6162993;23;20182;-70
2022/03/21 00:25:09;;;;;;;9.50;8.60;;;18.40;40.60;;;;;;6188361;23;20173;-70
2022/03/21 00:27:36;;;;;;;9.55;8.55;;;18.40;40.60;;;;;;6162078;23;20226;-71
2022/03/21 00:30:09;;;;;;;8.93;7.97;;;18.40;40.50;;;;;;6185600;23;20215;-70
2022/03/21 00:32:37;;;;;;;9.75;8.68;;;18.30;40.50;;;;;;6160897;23;20180;-71
2022/03/21 00:35:05;;;;;;;9.75;8.75;;;18.30;40.80;;;;;;6186079;23;20180;-70
2022/03/21 00:37:33;;;;;;;8.65;7.47;;;18.30;40.80;;;;;;6161193;23;20192;-71
2022/03/21 00:40:00;;;;;;;8.65;7.80;;;18.30;40.70;;;;;;6186311;23;20250;-70
2022/03/21 00:42:28;;;;;;;8.45;7.57;;;18.20;40.50;;;;;;6161253;23;20551;-71
2022/03/21 00:44:56;;;;;;;9.45;8.02;;;18.20;40.60;;;;;;6185780;23;20180;-70
2022/03/21 00:52:39;;;;;;;9.43;8.43;;;18.20;40.60;;;;;;6186782;23;20190;-52
2022/03/21 00:55:09;;;;;;;8.80;7.95;;;18.20;40.60;;;;;;6160207;23;20219;-51
2022/03/21 00:57:37;;;;;;;8.98;8.07;;;18.20;40.70;;;;;;6186073;23;20211;-50
2022/03/21 01:00:06;;;;;;;9.25;8.35;;;18.10;40.40;;;;;;6184545;23;20546;-51
2022/03/21 01:02:33;;;;;;;8.35;7.55;;;18.10;40.30;;;;;;6159551;23;20176;-50
2022/03/21 01:05:00;;;;;;;8.77;7.88;;;18.10;40.50;;;;;;6186460;23;20219;-51
2022/03/21 01:07:28;;;;;;;9.23;8.25;;;18.10;41.00;;;;;;6185897;23;20165;-51
2022/03/21 01:09:55;;;;;;;8.82;7.95;;;18.10;40.60;;;;;;6185962;23;20629;-51
2022/03/21 01:12:23;;;;;;;8.90;8.00;;;18.10;40.30;;;;;;6186257;23;20607;-51
2022/03/21 01:14:51;;;;;;;8.80;7.90;;;18.00;40.10;;;;;;6184428;23;20175;-51
2022/03/21 01:17:19;;;;;;;8.30;7.50;;;18.00;40.20;;;;;;6159581;23;20192;-50
2022/03/21 01:19:46;;;;;;;8.55;7.65;;;18.00;40.40;;;;;;6159827;23;20172;-50
2022/03/21 01:22:14;;;;;;;8.35;7.65;;;18.00;40.60;;;;;;6187133;23;20172;-50
2022/03/21 01:24:41;;;;;;;8.50;7.55;;;18.00;40.40;;;;;;6186540;23;20188;-50
2022/03/21 01:27:10;;;;;;;8.82;7.50;;;18.00;40.40;;;;;;6162878;23;20179;-50
2022/03/21 01:29:37;;;;;;;9.05;8.15;;;17.90;40.20;;;;;;6186160;23;20165;-50
2022/03/21 01:32:06;;;;;;;8.60;7.72;;;17.90;40.20;;;;;;6185959;23;20638;-51
2022/03/21 01:34:34;;;;;;;8.43;7.63;;;17.90;40.30;;;;;;6185674;23;20192;-50
2022/03/21 01:37:01;;;;;;;8.57;7.78;;;17.90;40.40;;;;;;6185799;23;20219;-51
2022/03/21 01:39:28;;;;;;;8.27;7.35;;;17.90;40.40;;;;;;6189731;23;20187;-50
2022/03/21 01:41:56;;;;;;;8.63;7.82;;;17.90;40.50;;;;;;6186875;23;20169;-51
2022/03/21 01:44:23;;;;;;;7.82;7.13;;;17.90;40.50;;;;;;6186015;23;20578;-51
2022/03/21 01:46:51;;;;;;;7.55;6.75;;;17.80;40.40;;;;;;6184580;23;20172;-51
2022/03/21 01:49:19;;;;;;;8.05;7.25;;;17.80;40.60;;;;;;6184279;23;20199;-51
2022/03/21 01:51:46;;;;;;;7.78;7.07;;;17.80;40.50;;;;;;6185513;23;20235;-51
2022/03/21 01:56:58;;;;;;;8.48;7.70;;;17.80;40.60;;;;;;6159217;23;20172;-51
2022/03/21 01:59:26;;;;;;;10.18;7.47;;;17.70;40.60;;;;;;6185632;23;20541;-51
2022/03/21 02:01:53;;;;;;;8.30;7.53;;;17.70;40.60;;;;;;6185690;23;20164;-51
2022/03/21 02:04:23;;;;;;;8.52;7.72;;;17.70;40.70;;;;;;6185649;23;20211;-51
2022/03/21 02:06:50;;;;;;;7.68;6.97;;;17.70;40.40;;;;;;6185674;23;20175;-51
2022/03/21 02:09:18;;;;;;;8.77;7.88;;;17.70;40.50;;;;;;6185670;23;20164;-51
2022/03/21 02:11:45;;;;;;;8.25;7.47;;;17.70;40.50;;;;;;6159202;23;20275;-51
2022/03/21 02:14:12;;;;;;;8.05;7.25;;;17.70;40.60;;;;;;6185558;23;20650;-51
2022/03/21 02:16:40;;;;;;;8.07;7.32;;;17.70;40.60;;;;;;6186158;23;20691;-51
2022/03/21 02:19:09;;;;;;;8.27;7.57;;;17.60;40.60;;;;;;6185437;23;20643;-51
2022/03/21 02:21:45;;;;;;;7.75;7.15;;;17.60;40.80;;;;;;6185427;23;20168;-51
2022/03/21 02:24:22;;;;;;;8.25;7.35;;;17.60;40.60;;;;;;6185688;23;20214;-51
2022/03/21 02:26:51;;;;;;;8.75;7.85;;;17.60;40.60;;;;;;6184056;23;20176;-51
2022/03/21 02:29:19;;;;;;;8.20;7.50;;;17.60;40.50;;;;;;6185643;23;20247;-51
2022/03/21 02:31:46;;;;;;;8.00;7.20;;;17.60;40.70;;;;;;6185934;23;20172;-51
2022/03/21 02:34:14;;;;;;;8.05;7.28;;;17.50;40.60;;;;;;6185417;23;20243;-51
2022/03/21 02:36:41;;;;;;;8.38;7.68;;;17.50;40.60;;;;;;6185708;23;20634;-51
2022/03/21 02:39:08;;;;;;;8.50;7.65;;;17.50;40.50;;;;;;6185295;23;20208;-51
2022/03/21 02:41:36;;;;;;;8.32;6.95;;;17.50;40.40;;;;;;6185467;23;20174;-51
2022/03/21 02:44:06;;;;;;;7.82;7.13;;;17.50;40.50;;;;;;6185387;23;20192;-51
2022/03/21 02:46:34;;;;;;;7.70;7.00;;;17.50;41.10;;;;;;6185478;23;20153;-51
2022/03/21 02:49:01;;;;;;;8.30;7.50;;;17.50;40.50;;;;;;6185798;23;20164;-51
2022/03/21 02:51:29;;;;;;;7.68;6.97;;;17.50;40.60;;;;;;6185284;23;20248;-51
2022/03/21 02:53:56;;;;;;;7.45;6.75;;;17.40;40.40;;;;;;6187101;23;20242;-51
2022/03/21 02:56:24;;;;;;;8.35;7.55;;;17.40;40.30;;;;;;6187360;23;20184;-51
2022/03/21 02:58:51;;;;;;;8.15;7.38;;;17.50;40.40;;;;;;6160823;23;20295;-50
2022/03/21 03:01:20;;;;;;;7.63;6.65;;;17.40;40.40;;;;;;6187100;23;20171;-50
2022/03/21 03:03:47;;;;;;;8.23;7.43;;;17.40;40.50;;;;;;6187160;23;20267;-50
2022/03/21 03:06:14;;;;;;;8.52;7.72;;;17.40;40.50;;;;;;6187403;23;20165;-50
2022/03/21 03:08:43;;;;;;;7.50;6.90;;;17.30;40.30;;;;;;6185750;23;20172;-50
2022/03/21 03:11:10;;;;;;;7.97;7.22;;;17.40;40.60;;;;;;6187187;23;20238;-51
2022/03/21 03:13:37;;;;;;;7.75;7.05;;;17.30;40.30;;;;;;6187072;23;20184;-51
2022/03/21 03:16:04;;;;;;;7.85;7.10;;;17.40;40.40;;;;;;6187365;23;20497;-50
2022/03/21 03:18:33;;;;;;;8.15;7.45;;;17.30;40.40;;;;;;6160589;23;20196;-51
2022/03/21 03:21:00;;;;;;;7.60;6.90;;;17.30;40.40;;;;;;6186979;23;20222;-51
2022/03/21 03:23:29;;;;;;;7.70;7.00;;;17.30;40.40;;;;;;6187274;23;20184;-51
2022/03/21 03:25:59;;;;;;;8.23;7.43;;;17.30;40.40;;;;;;6160554;23;20227;-50
2022/03/21 03:28:26;;;;;;;7.63;6.93;;;17.30;40.90;;;;;;6186941;23;20167;-51
2022/03/21 03:30:53;;;;;;;7.65;6.95;;;17.30;40.40;;;;;;6185318;23;20183;-51
2022/03/21 03:33:20;;;;;;;8.02;7.22;;;17.30;40.40;;;;;;6187036;23;20718;-51
2022/03/21 03:35:49;;;;;;;8.05;7.20;;;17.20;40.40;;;;;;6186965;23;20172;-51
2022/03/21 03:38:16;;;;;;;7.40;6.70;;;17.20;40.20;;;;;;6160504;23;20650;-51
2022/03/21 03:40:44;;;;;;;7.78;7.07;;;17.30;40.40;;;;;;6186823;23;20243;-51
2022/03/21 03:43:12;;;;;;;7.88;7.18;;;17.20;40.30;;;;;;6186673;23;20192;-51
2022/03/21 03:45:39;;;;;;;7.55;6.75;;;17.30;40.30;;;;;;6186908;23;20666;-51
2022/03/21 03:48:06;;;;;;;7.90;7.13;;;17.20;40.30;;;;;;6186690;23;20160;-51
2022/03/21 03:50:33;;;;;;;7.80;7.10;;;17.20;40.20;;;;;;6186635;23;20176;-51
2022/03/21 03:53:27;;;;;;;8.13;7.32;;;17.20;40.20;;;;;;6186696;23;20242;-51
2022/03/21 03:55:54;;;;;;;8.18;7.38;;;17.20;40.20;;;;;;6160377;23;20176;-51
2022/03/21 03:58:22;;;;;;;7.28;6.57;;;17.20;40.20;;;;;;6186897;23;20184;-51
2022/03/21 04:00:51;;;;;;;7.80;7.13;;;17.10;40.20;;;;;;6188067;23;20245;-51
2022/03/21 04:06:03;;;;;;;7.95;7.15;;;17.10;40.00;;;;;;6188204;23;20155;-51
2022/03/21 04:08:32;;;;;;;7.03;6.40;;;17.10;40.00;;;;;;6160200;23;20172;-51
2022/03/21 04:10:59;;;;;;;8.00;7.30;;;17.10;40.20;;;;;;6186648;23;20164;-51
2022/03/21 04:13:26;;;;;;;7.43;6.78;;;17.10;40.10;;;;;;6186826;23;20184;-51
2022/03/21 04:15:53;;;;;;;7.88;7.13;;;17.10;40.10;;;;;;6186562;23;20235;-51
2022/03/21 04:18:21;;;;;;;7.63;6.93;;;17.10;39.90;;;;;;6186785;23;20191;-51
2022/03/21 04:20:50;;;;;;;7.55;6.82;;;17.10;40.00;;;;;;6186719;23;20179;-51
2022/03/21 04:23:18;;;;;;;7.70;7.00;;;17.10;39.80;;;;;;6184727;23;20529;-51
2022/03/21 04:25:47;;;;;;;7.68;6.93;;;17.10;40.50;;;;;;6186715;23;20247;-51
2022/03/21 04:28:15;;;;;;;7.25;6.65;;;17.10;39.70;;;;;;6186452;23;20171;-50
2022/03/21 04:30:42;;;;;;;7.80;7.10;;;17.00;39.90;;;;;;6184802;23;20175;-50
2022/03/21 04:33:10;;;;;;;7.97;7.28;;;17.00;39.90;;;;;;6160318;23;20196;-51
2022/03/21 04:35:38;;;;;;;8.57;7.15;;;17.00;39.80;;;;;;6186339;23;20680;-50
2022/03/21 04:38:12;;;;;;;7.47;6.88;;;17.00;39.90;;;;;;6186608;23;20204;-51
2022/03/21 04:40:40;;;;;;;7.18;6.57;;;17.00;39.90;;;;;;6186457;23;20225;-50
2022/03/21 04:43:10;;;;;;;7.18;6.47;;;17.00;39.90;;;;;;6160095;23;20216;-50
2022/03/21 04:45:37;;;;;;;7.35;6.72;;;17.00;39.90;;;;;;6186781;23;20192;-51
2022/03/21 04:48:05;;;;;;;7.20;6.53;;;17.00;39.80;;;;;;6186616;23;20660;-50
2022/03/21 04:50:32;;;;;;;7.70;7.00;;;17.00;39.70;;;;;;6186084;23;20191;-50
2022/03/21 04:52:59;;;;;;;7.40;6.70;;;17.00;39.80;;;;;;6186216;23;20195;-51
2022/03/21 04:55:27;;;;;;;7.35;6.75;;;17.00;40.00;;;;;;6186651;23;20187;-50
2022/03/21 04:57:55;;;;;;;7.47;6.78;;;17.00;39.90;;;;;;6186167;23;20160;-51
2022/03/21 05:00:24;;;;;;;6.80;6.30;;;17.00;39.80;;;;;;6159609;23;20623;-51
2022/03/21 05:02:51;;;;;;;7.40;6.80;;;17.00;39.80;;;;;;6186069;23;20192;-50
2022/03/21 05:05:18;;;;;;;7.05;6.45;;;17.00;39.80;;;;;;6186082;23;20168;-50
2022/03/21 05:07:46;;;;;;;7.53;6.82;;;17.00;39.70;;;;;;6185950;23;20164;-50
2022/03/21 05:10:14;;;;;;;7.85;7.15;;;17.00;39.60;;;;;;6184455;23;20168;-50
2022/03/21 05:12:41;;;;;;;7.57;6.90;;;17.00;39.40;;;;;;6184522;23;20387;-50
2022/03/21 05:15:09;;;;;;;7.32;6.70;;;17.00;39.00;;;;;;6185069;23;20176;-50
2022/03/21 05:17:37;;;;;;;7.60;7.00;;;17.00;39.40;;;;;;6159497;23;20172;-50
2022/03/21 05:20:10;;;;;;;7.90;7.20;;;17.00;39.40;;;;;;6186044;23;20194;-50
2022/03/21 05:22:37;;;;;;;7.72;7.03;;;17.00;39.90;;;;;;6159412;23;20270;-51
2022/03/21 05:36:08;;;;;;;7.55;6.65;;;17.10;39.70;;;;;;6185800;23;20149;-50
2022/03/21 05:38:35;;;;;;;7.20;6.50;;;17.10;40.20;;;;;;6185641;23;20219;-50
2022/03/21 05:41:03;;;;;;;7.60;6.90;;;17.10;40.90;;;;;;6185521;23;20160;-51
2022/03/21 05:43:31;;;;;;;7.68;6.85;;;17.20;41.10;;;;;;6185419;23;20195;-50
2022/03/21 05:45:59;;;;;;;7.65;6.95;;;17.20;41.30;;;;;;6183979;23;20616;-49
2022/03/21 05:51:13;;;;;;;9.20;7.15;;;17.30;41.00;;;;;;6185296;23;20184;-51
2022/03/21 05:53:41;;;;;;;7.30;6.70;;;17.30;40.30;;;;;;6158894;23;20647;-50
2022/03/21 05:56:08;;;;;;;7.20;6.50;;;17.30;40.90;;;;;;6185458;23;20164;-50
2022/03/21 05:58:35;;;;;;;7.20;6.57;;;17.40;39.90;;;;;;6185460;23;20188;-51
2022/03/21 06:01:02;;;;;;;7.50;6.80;;;17.40;39.30;;;;;;6185516;23;20175;-50
2022/03/21 06:03:31;;;;;;;8.15;6.97;;;17.40;39.20;;;;;;6212953;22;20198;-50
2022/03/21 06:05:59;;;;;;;7.60;6.90;;;17.40;39.30;;;;;;6218914;23;20538;-50
2022/03/21 06:08:27;;;;;;;7.28;6.65;;;17.50;39.30;;;;;;6218997;23;20556;-50
2022/03/21 06:11:03;;;;;;;7.82;7.05;;;17.50;39.30;;;;;;6246269;23;20163;-51
2022/03/21 06:13:32;;;;;;;7.45;6.75;;;17.50;39.40;;;;;;6203945;23;20281;-51
2022/03/21 06:16:03;;;;;;;8.35;6.38;;;17.60;39.40;;;;;;6215877;23;20245;-51
2022/03/21 06:18:32;;;;;;;7.05;6.43;;;17.60;39.30;;;;;;6215781;23;20152;-52
2022/03/21 06:20:59;;;;;;;7.78;6.80;;;17.60;39.10;;;;;;6188874;23;20175;-51
2022/03/21 06:23:27;;;;;;;7.45;6.38;;;17.60;39.10;;;;;;6188751;23;20567;-51
2022/03/21 06:25:54;;;;;;;7.60;6.88;;;17.70;39.00;;;;;;6215938;23;20194;-52
2022/03/21 06:28:22;;;;;;;7.65;6.85;;;17.70;38.80;;;;;;6217453;23;20171;-52
2022/03/21 06:30:51;;;;;;;7.65;6.95;;;17.70;39.10;;;;;;6217733;23;20164;-52
2022/03/21 06:33:18;;;;;;;6.97;6.32;;;17.80;38.50;;;;;;6217501;23;20559;-51
2022/03/21 06:35:47;;;;;;;7.47;6.78;;;17.80;38.40;;;;;;6217459;23;20170;-52
2022/03/21 06:38:15;;;;;;;7.53;6.82;;;17.90;38.30;;;;;;6190783;23;20175;-51
2022/03/21 06:40:43;;;;;;;6.82;6.22;;;17.90;38.20;;;;;;6217602;23;20653;-51
2022/03/21 06:43:10;;;;;;;6.93;6.35;;;17.90;38.30;;;;;;6217463;23;20179;-51
2022/03/21 06:45:38;;;;;;;7.57;6.82;;;18.00;38.30;;;;;;6217465;23;20619;-51
2022/03/21 06:48:05;;;;;;;8.40;7.03;;;18.00;37.70;;;;;;6217460;22;20195;-66
2022/03/21 06:50:32;;;;;;;7.50;6.80;;;18.10;37.50;;;;;;6218315;23;20160;-69
2022/03/21 06:53:01;;;;;;;7.22;6.63;;;18.10;37.50;;;;;;6180059;23;20549;-69
2022/03/21 06:55:28;;;;;;;7.82;7.10;;;18.20;37.50;;;;;;6161547;23;20649;-67
2022/03/21 06:57:56;;;;;;;7.22;6.55;;;18.20;37.10;;;;;;6161530;23;20256;-67
2022/03/21 07:00:23;;;;;;;7.03;6.43;;;18.30;37.00;;;;;;6161505;23;20662;-67
2022/03/21 07:02:51;;;;;;;7.85;7.15;;;18.40;36.90;;;;;;6188020;23;20268;-67
2022/03/21 07:05:18;;;;;;;6.90;6.30;;;18.50;36.80;;;;;;6161828;23;20303;-66
2022/03/21 07:07:46;;;;;;;7.95;6.97;;;18.60;36.50;;;;;;6188202;23;20192;-67
2022/03/21 07:10:15;;;;;;;7.28;6.57;;;18.70;36.30;;;;;;6162234;23;20642;-66
2022/03/21 07:12:43;;;;;;;6.80;6.20;;;18.80;36.20;;;;;;6161576;23;20275;-66
2022/03/21 07:15:10;;;;;;;6.60;6.00;;;18.90;36.10;;;;;;6161634;23;20176;-66
2022/03/21 07:17:38;;;;;;;8.48;6.78;;;19.10;36.10;;;;;;6161746;23;20176;-68
2022/03/21 07:20:06;;;;;;;7.97;7.20;;;19.30;36.30;;;;;;6161548;23;20214;-68
2022/03/21 07:22:34;;;;;;;7.20;6.50;;;19.40;36.10;;;;;;6188446;23;20192;-67
2022/03/21 07:25:01;;;;;;;6.97;6.38;;;19.60;35.80;;;;;;6162443;23;20172;-67
2022/03/21 07:27:30;;;;;;;7.68;6.88;;;19.70;35.40;;;;;;6162527;23;20227;-66
2022/03/21 07:29:57;;;;;;;7.82;7.03;;;19.90;35.40;;;;;;6163705;23;20200;-66
2022/03/21 07:32:24;;;;;;;7.38;6.68;;;20.00;34.90;;;;;;6162567;23;20202;-66
2022/03/21 07:34:51;;;;;;;7.20;6.60;;;20.10;35.00;;;;;;6161926;23;20633;-66
2022/03/21 07:37:18;;;;;;;7.60;6.95;;;20.20;34.70;;;;;;6188366;23;20177;-66
2022/03/21 07:39:47;;;;;;;7.13;6.50;;;20.30;34.20;;;;;;6161632;23;20279;-66
2022/03/21 07:42:16;;;;;;;7.85;7.15;;;20.40;34.30;;;;;;6161659;23;20180;-66
2022/03/21 07:47:29;;;;;;;7.70;7.00;;;20.60;33.60;;;;;;6161611;23;20169;-66
2022/03/21 07:49:56;;;;;;;10.27;8.18;;;20.70;33.30;;;;;;6161573;23;20605;-66
2022/03/21 07:52:24;;;;;;;7.63;6.85;;;20.80;33.20;;;;;;6161719;23;20192;-66
2022/03/21 07:54:53;;;;;;;8.05;7.32;;;20.90;33.00;;;;;;6162814;23;20175;-66
2022/03/21 07:57:21;;;;;;;7.45;6.75;;;21.00;32.80;;;;;;6187970;23;20175;-66
2022/03/21 07:59:50;;;;;;;7.72;6.93;;;21.10;32.90;;;;;;6188059;23;20188;-66
2022/03/21 08:02:19;;;;;;;8.15;7.20;;;21.20;33.00;;;;;;6161192;23;20172;-67
2022/03/21 08:04:47;;;;;;;8.52;7.72;;;21.30;32.80;;;;;;6160827;23;20218;-66
2022/03/21 08:07:15;;;;;;;11.55;7.82;;;21.30;32.70;;;;;;6161321;23;20173;-67
2022/03/21 08:09:42;;;;;;;7.90;7.20;;;21.40;32.50;;;;;;6160995;23;20581;-66
2022/03/21 08:12:11;;;;;;;8.70;7.20;;;21.40;32.40;;;;;;6161676;23;20192;-66
2022/03/21 08:14:38;;;;;;;7.63;6.88;;;21.50;32.30;;;;;;6160737;23;20196;-66
2022/03/21 08:17:06;;;;;;;7.50;6.80;;;21.60;32.40;;;;;;6187611;23;20310;-67
2022/03/21 08:19:35;;;;;;;7.60;6.93;;;21.70;32.30;;;;;;6187542;23;20180;-67
2022/03/21 08:22:04;;;;;;;7.95;7.25;;;21.80;32.30;;;;;;6160853;23;20536;-66
2022/03/21 08:24:34;;;;;;;8.10;7.40;;;21.80;32.20;;;;;;6186997;23;20169;-67
2022/03/21 08:27:02;;;;;;;6.93;6.32;;;21.90;31.90;;;;;;6160879;23;20574;-67
2022/03/21 08:29:30;;;;;;;7.85;7.20;;;22.00;31.80;;;;;;6160925;23;20555;-66
2022/03/21 08:31:57;;;;;;;7.55;6.88;;;22.10;31.70;;;;;;6160388;23;20195;-67
2022/03/21 08:34:26;;;;;;;7.55;6.90;;;22.20;31.80;;;;;;6187158;23;20192;-66
2022/03/21 08:36:53;;;;;;;7.63;6.93;;;22.20;31.60;;;;;;6160818;23;20182;-66
2022/03/21 08:39:20;;;;;;;7.07;6.47;;;22.30;31.50;;;;;;6187371;23;20176;-66
2022/03/21 08:41:47;;;;;;;7.60;6.90;;;22.30;31.50;;;;;;6160572;23;20179;-66
2022/03/21 08:44:15;;;;;;;8.30;7.45;;;22.40;31.50;;;;;;6160829;23;20200;-66
2022/03/21 08:46:42;;;;;;;7.05;6.35;;;22.50;31.50;;;;;;6160737;23;20172;-67
2022/03/21 08:49:27;;;;;;;7.00;6.40;;;22.50;31.30;;;;;;6159999;23;20561;-67
2022/03/21 08:51:57;;;;;;;7.30;6.70;;;22.60;31.30;;;;;;6160669;23;20263;-68
2022/03/21 08:54:24;;;;;;;7.03;6.43;;;22.70;31.40;;;;;;6160754;23;20188;-68
2022/03/21 08:56:51;;;;;;;6.85;6.25;;;22.70;31.10;;;;;;6161329;23;20176;-68
2022/03/21 08:59:19;;;;;;;7.22;6.30;;;22.70;31.10;;;;;;6161014;23;20657;-68
2022/03/21 09:01:46;;;;;;;7.28;6.65;;;22.80;31.00;;;;;;6160487;23;20196;-68
2022/03/21 09:04:13;;;;;;;6.80;6.10;;;22.80;31.00;;;;;;6160472;23;20188;-68
2022/03/21 09:06:40;;;;;;;7.63;7.00;;;22.80;31.00;;;;;;6160298;23;20251;-68
2022/03/21 09:09:09;;;;;;;7.25;6.55;;;22.80;31.00;;;;;;6160404;23;20505;-67
2022/03/21 09:11:37;;;;;;;7.63;6.93;;;22.80;31.00;;;;;;6186941;23;20167;-68
2022/03/21 09:14:06;;;;;;;7.75;7.05;;;22.80;31.00;;;;;;6186795;23;20191;-68
2022/03/21 09:17:00;;;;;;;6.47;5.88;;;22.80;31.00;;;;;;6196616;23;20199;-67
2022/03/21 09:19:52;;;;;;;7.45;6.85;;;22.80;31.00;;;;;;6186499;23;20649;-68
2022/03/21 09:22:19;;;;;;;7.68;6.97;;;22.80;30.90;;;;;;6186292;23;20191;-68
2022/03/21 09:24:48;;;;;;;7.50;6.80;;;22.80;30.90;;;;;;6159953;23;20195;-68
2022/03/21 09:27:16;;;;;;;6.90;6.30;;;22.80;30.90;;;;;;6159776;23;20230;-68
2022/03/21 09:29:44;;;;;;;6.68;6.07;;;22.80;30.80;;;;;;6159897;23;20171;-67
2022/03/21 09:32:11;;;;;;;7.32;6.40;;;22.90;30.80;;;;;;6160641;23;20544;-67
2022/03/21 09:34:39;;;;;;;7.00;6.40;;;23.00;30.70;;;;;;6159810;23;20653;-68
2022/03/21 09:37:07;;;;;;;6.45;5.95;;;23.10;31.10;;;;;;6160055;23;20238;-68
2022/03/21 09:39:34;;;;;;;6.22;5.70;;;23.10;31.20;;;;;;6160790;23;20226;-67
2022/03/21 09:42:04;;;;;;;7.20;6.50;;;23.10;30.50;;;;;;6186303;23;20164;-67
2022/03/21 09:44:31;;;;;;;6.47;5.90;;;23.20;30.50;;;;;;6159499;23;20224;-68
2022/03/21 09:46:58;;;;;;;6.63;6.03;;;23.20;31.10;;;;;;6159422;23;20172;-68
2022/03/21 09:49:28;;;;;;;6.60;6.00;;;23.20;30.30;;;;;;6159574;23;20368;-68
2022/03/21 09:51:55;;;;;;;6.43;5.93;;;23.20;30.40;;;;;;6159452;23;20623;-67
2022/03/21 09:54:22;;;;;;;6.50;5.90;;;23.20;30.30;;;;;;6185760;23;20180;-68
2022/03/21 09:56:50;;;;;;;6.10;5.57;;;23.30;30.40;;;;;;6186106;23;20172;-68
2022/03/21 09:59:19;;;;;;;6.47;5.88;;;23.30;30.40;;;;;;6159372;23;20176;-68
2022/03/21 10:01:46;;;;;;;6.30;5.70;;;23.30;30.30;;;;;;6159205;23;20179;-68
2022/03/21 10:04:13;;;;;;;6.07;5.57;;;23.30;30.30;;;;;;6159607;23;20246;-68
2022/03/21 10:06:41;;;;;;;6.30;5.70;;;23.30;30.40;;;;;;6185711;23;20168;-68
2022/03/21 10:09:11;;;;;;;6.45;5.85;;;23.20;30.30;;;;;;6185979;23;20473;-68
2022/03/21 10:11:39;;;;;;;6.57;5.97;;;23.20;30.40;;;;;;6185839;23;20168;-68
2022/03/21 10:14:24;;;;;;;6.10;5.60;;;23.20;30.50;;;;;;6185721;23;20658;-68
2022/03/21 10:16:52;;;;;;;6.53;6.03;;;23.20;30.60;;;;;;6159230;23;20238;-68
2022/03/21 10:19:19;;;;;;;6.55;6.05;;;23.10;30.60;;;;;;6185736;23;20546;-68
2022/03/21 10:22:00;;;;;;;6.70;6.15;;;23.10;30.70;;;;;;6158915;23;20587;-68
2022/03/21 10:24:27;;;;;;;6.95;6.20;;;23.00;30.70;;;;;;6159253;23;20234;-68
2022/03/21 10:26:55;;;;;;;6.75;5.88;;;23.00;30.80;;;;;;6159245;23;20176;-68
2022/03/21 10:29:24;;;;;;;6.28;5.82;;;23.00;30.80;;;;;;6159071;23;20199;-68
2022/03/21 10:31:52;;;;;;;6.30;5.70;;;23.00;30.80;;;;;;6159323;23;20218;-68
2022/03/21 10:34:20;;;;;;;6.30;5.70;;;23.10;30.80;;;;;;6185374;23;20192;-68
2022/03/21 10:37:03;;;;;;;6.22;5.72;;;23.10;30.80;;;;;;6185696;23;20169;-68
2022/03/21 10:39:31;;;;;;;6.18;5.63;;;23.20;30.90;;;;;;6160325;23;20587;-68
2022/03/21 10:41:59;;;;;;;6.20;5.70;;;23.20;30.80;;;;;;6187214;23;20617;-68
2022/03/21 10:44:28;;;;;;;6.68;6.07;;;23.20;30.90;;;;;;6186406;23;20191;-67
2022/03/21 10:46:55;;;;;;;6.10;5.60;;;23.20;30.90;;;;;;6159121;23;20623;-68
2022/03/21 10:49:31;;;;;;;6.10;5.50;;;23.10;30.90;;;;;;6158952;23;20558;-68
2022/03/21 10:51:58;;;;;;;6.28;5.70;;;23.10;31.00;;;;;;6159214;23;20172;-67
2022/03/21 10:54:54;;;;;;;6.25;5.75;;;23.10;31.10;;;;;;6185614;23;20213;-68
2022/03/21 10:57:34;;;;;;;6.18;5.57;;;23.10;31.20;;;;;;6185708;23;20163;-68
2022/03/21 11:00:16;;;;;;;6.03;5.53;;;23.10;31.20;;;;;;6159320;23;20292;-67
2022/03/21 11:02:54;;;;;;;5.95;5.43;;;23.00;31.20;;;;;;6185516;23;20586;-68
2022/03/21 11:05:22;;;;;;;5.90;5.40;;;23.00;31.30;;;;;;6159539;23;20490;-68
2022/03/21 11:07:50;;;;;;;6.15;5.65;;;23.00;31.40;;;;;;6158991;23;20515;-68
2022/03/21 11:10:17;;;;;;;6.10;5.60;;;22.90;31.30;;;;;;6158993;23;20171;-68
2022/03/21 11:12:45;;;;;;;6.35;5.85;;;22.90;31.40;;;;;;6185700;23;20189;-67
2022/03/21 11:15:13;;;;;;;6.03;5.53;;;22.90;32.10;;;;;;6186993;23;20168;-68
2022/03/21 11:17:43;;;;;;;6.32;5.82;;;22.80;31.40;;;;;;6160690;23;20176;-68
2022/03/21 11:20:11;;;;;;;5.90;5.43;;;22.80;31.60;;;;;;6160673;23;20188;-68
2022/03/21 11:22:39;;;;;;;6.38;5.82;;;22.80;31.60;;;;;;6160359;23;20230;-68
2022/03/21 11:25:07;;;;;;;6.82;6.22;;;22.80;31.70;;;;;;6161289;23;20250;-68
2022/03/21 11:28:20;;;;;;;6.22;5.65;;;22.70;31.60;;;;;;6186870;23;20532;-68
2022/03/21 11:30:57;;;;;;;6.82;6.22;;;22.70;31.70;;;;;;6132465;23;20231;-68
2022/03/21 11:33:33;;;;;;;6.75;6.07;;;22.70;31.60;;;;;;6160441;23;20210;-68
2022/03/21 11:36:01;;;;;;;6.35;5.75;;;22.60;31.50;;;;;;6187159;23;20156;-68
2022/03/21 11:38:29;;;;;;;6.45;5.85;;;22.70;31.80;;;;;;6160574;23;20176;-68
2022/03/21 11:41:18;;;;;;;7.05;6.05;;;22.70;31.90;;;;;;6187217;23;20192;-67
2022/03/21 11:43:46;;;;;;;6.30;5.80;;;22.60;31.80;;;;;;6160463;23;20273;-68
2022/03/21 11:46:25;;;;;;;6.78;6.18;;;22.70;31.80;;;;;;6160645;23;20255;-68
2022/03/21 11:48:54;;;;;;;6.70;6.10;;;22.70;31.80;;;;;;6186733;23;20176;-68
2022/03/21 11:51:26;;;;;;;6.55;6.05;;;22.70;31.70;;;;;;6160578;23;20164;-68
2022/03/21 11:53:54;;;;;;;7.45;6.82;;;22.70;31.60;;;;;;6160496;23;20542;-68
2022/03/21 11:56:53;;;;;;;6.55;6.05;;;22.70;31.20;;;;;;6186898;23;20168;-68
2022/03/21 11:59:51;;;;;;;6.60;6.10;;;22.70;31.40;;;;;;6174221;23;20199;-68
2022/03/21 12:02:56;;;;;;;7.13;6.53;;;22.70;31.70;;;;;;6096952;23;20224;-68
2022/03/21 12:05:52;;;;;;;6.40;5.90;;;22.70;31.80;;;;;;6160737;23;20595;-68
2022/03/21 12:08:45;;;;;;;6.63;6.03;;;22.80;31.90;;;;;;6154910;23;20191;-68
2022/03/21 12:11:50;;;;;;;6.38;5.78;;;22.80;32.50;;;;;;6160462;23;20174;-68
2022/03/21 12:14:29;;;;;;;6.57;5.97;;;22.80;32.00;;;;;;6160571;23;20274;-68
2022/03/21 12:17:36;;;;;;;6.60;6.00;;;22.80;31.90;;;;;;6160681;23;20164;-68
2022/03/21 12:20:11;;;;;;;6.60;6.10;;;22.80;31.90;;;;;;6161521;23;20168;-68
2022/03/21 12:22:40;;;;;;;6.40;5.90;;;22.80;31.80;;;;;;6187114;23;20231;-68
2022/03/21 12:25:10;;;;;;;6.82;6.22;;;22.80;31.90;;;;;;6159884;23;20176;-68
2022/03/21 12:27:39;;;;;;;6.25;5.75;;;22.90;32.00;;;;;;6160428;23;20490;-68
2022/03/21 12:30:35;;;;;;;5.93;5.43;;;22.80;31.90;;;;;;6161102;23;20180;-68
2022/03/21 12:33:05;;;;;;;6.35;5.85;;;22.80;31.90;;;;;;6161409;23;20196;-68
2022/03/21 12:35:58;;;;;;;6.50;5.90;;;22.90;31.70;;;;;;6187226;23;20164;-68
2022/03/21 12:38:33;;;;;;;6.32;5.80;;;22.90;31.90;;;;;;6160503;23;20230;-68
2022/03/21 12:41:02;;;;;;;6.30;5.72;;;22.90;31.70;;;;;;6160768;23;20203;-68
2022/03/21 12:43:30;;;;;;;7.03;6.43;;;22.90;31.80;;;;;;6186801;23;20188;-68
2022/03/21 12:46:07;;;;;;;7.20;6.53;;;22.90;31.20;;;;;;6186629;23;20227;-68
2022/03/21 12:48:36;;;;;;;6.60;6.00;;;23.00;31.00;;;;;;6209480;22;20198;-71
2022/03/21 12:51:04;;;;;;;6.75;6.20;;;23.00;31.70;;;;;;6220161;23;20170;-71
2022/03/21 12:53:39;;;;;;;5.85;5.35;;;23.00;31.60;;;;;;6220477;23;20175;-70
2022/03/21 12:56:08;;;;;;;7.18;6.57;;;23.00;31.70;;;;;;6247204;23;20155;-70
2022/03/21 12:58:35;;;;;;;6.40;5.90;;;22.90;31.50;;;;;;6207604;23;20250;-71
2022/03/21 13:01:03;;;;;;;7.00;6.40;;;23.00;31.60;;;;;;6190017;23;20207;-71
2022/03/21 13:03:30;;;;;;;6.65;6.05;;;23.00;31.60;;;;;;6190166;23;20176;-71
2022/03/21 13:11:31;;;;;;;6.47;5.88;;;22.90;31.60;;;;;;6216743;23;20152;-71
2022/03/21 13:14:00;;;;;;;6.70;6.10;;;22.90;31.60;;;;;;6217020;23;20175;-70
2022/03/21 13:16:28;;;;;;;6.38;5.88;;;22.90;31.60;;;;;;6190307;23;20221;-71
2022/03/21 13:18:56;;;;;;;6.90;6.30;;;22.90;31.80;;;;;;6190431;23;20545;-71
2022/03/21 13:21:23;;;;;;;6.97;6.30;;;22.80;31.90;;;;;;6216642;23;20189;-71
2022/03/21 13:23:53;;;;;;;6.30;5.80;;;22.80;31.80;;;;;;6189995;23;20720;-71
2022/03/21 13:26:21;;;;;;;6.60;6.03;;;22.80;31.70;;;;;;6216389;23;20163;-71
2022/03/21 13:28:48;;;;;;;6.30;5.70;;;22.70;31.80;;;;;;6216904;23;20192;-71
2022/03/21 13:31:19;;;;;;;6.00;5.50;;;22.70;31.60;;;;;;6217217;23;20164;-71